sensor_id;sensor_type;location;lat;lon;timestamp;P1;durP1;ratioP1;P2;durP2;ratioP2
14975;SDS011;7584;60.468;25.126;2023-04-29T00:00:32;0.93;;;0.60;;
14975;SDS011;7584;60.468;25.126;2023-04-29T00:02:57;0.77;;;0.50;;
14975;SDS011;7584;60.468;25.126;2023-04-29T00:05:22;0.90;;;0.60;;
14975;SDS011;7584;60.468;25.126;2023-04-29T00:07:48;0.63;;;0.60;;
14975;SDS011;7584;60.468;25.126;2023-04-29T00:10:13;0.50;;;0.50;;
14975;SDS011;7584;60.468;25.126;2023-04-29T00:12:39;0.50;;;0.50;;
14975;SDS011;7584;60.468;25.126;2023-04-29T00:15:05;1.23;;;0.60;;
14975;SDS011;7584;60.468;25.126;2023-04-29T00:17:30;0.50;;;0.50;;
14975;SDS011;7584;60.468;25.126;2023-04-29T00:19:56;0.67;;;0.60;;
14975;SDS011;7584;60.468;25.126;2023-04-29T00:22:21;0.70;;;0.50;;
14975;SDS011;7584;60.468;25.126;2023-04-29T00:24:46;0.83;;;0.53;;
14975;SDS011;7584;60.468;25.126;2023-04-29T00:27:12;0.60;;;0.60;;
14975;SDS011;7584;60.468;25.126;2023-04-29T00:29:37;0.90;;;0.60;;
14975;SDS011;7584;60.468;25.126;2023-04-29T00:32:02;0.90;;;0.80;;
14975;SDS011;7584;60.468;25.126;2023-04-29T00:34:28;0.60;;;0.57;;
14975;SDS011;7584;60.468;25.126;2023-04-29T00:36:53;2.77;;;0.50;;
14975;SDS011;7584;60.468;25.126;2023-04-29T00:39:18;1.03;;;0.60;;
14975;SDS011;7584;60.468;25.126;2023-04-29T00:41:44;0.63;;;0.60;;
14975;SDS011;7584;60.468;25.126;2023-04-29T00:44:09;0.93;;;0.83;;
14975;SDS011;7584;60.468;25.126;2023-04-29T00:46:35;0.67;;;0.63;;
14975;SDS011;7584;60.468;25.126;2023-04-29T00:49:01;0.60;;;0.50;;
14975;SDS011;7584;60.468;25.126;2023-04-29T00:51:26;0.80;;;0.80;;
14975;SDS011;7584;60.468;25.126;2023-04-29T00:53:52;0.70;;;0.70;;
14975;SDS011;7584;60.468;25.126;2023-04-29T00:56:17;0.67;;;0.67;;
14975;SDS011;7584;60.468;25.126;2023-04-29T00:58:45;0.80;;;0.60;;
14975;SDS011;7584;60.468;25.126;2023-04-29T01:01:14;0.73;;;0.70;;
14975;SDS011;7584;60.468;25.126;2023-04-29T01:03:40;0.63;;;0.57;;
14975;SDS011;7584;60.468;25.126;2023-04-29T01:06:08;0.93;;;0.70;;
14975;SDS011;7584;60.468;25.126;2023-04-29T01:08:43;0.93;;;0.90;;
14975;SDS011;7584;60.468;25.126;2023-04-29T01:11:10;0.70;;;0.70;;
14975;SDS011;7584;60.468;25.126;2023-04-29T01:13:45;0.60;;;0.60;;
14975;SDS011;7584;60.468;25.126;2023-04-29T01:16:12;0.77;;;0.77;;
14975;SDS011;7584;60.468;25.126;2023-04-29T01:18:45;3.20;;;0.80;;
14975;SDS011;7584;60.468;25.126;2023-04-29T01:21:13;0.93;;;0.87;;
14975;SDS011;7584;60.468;25.126;2023-04-29T01:23:39;0.83;;;0.70;;
14975;SDS011;7584;60.468;25.126;2023-04-29T01:26:05;0.60;;;0.60;;
14975;SDS011;7584;60.468;25.126;2023-04-29T01:31:24;0.60;;;0.60;;
14975;SDS011;7584;60.468;25.126;2023-04-29T01:44:33;1.13;;;0.70;;
14975;SDS011;7584;60.468;25.126;2023-04-29T01:46:59;1.47;;;0.90;;
14975;SDS011;7584;60.468;25.126;2023-04-29T01:49:25;1.00;;;0.90;;
14975;SDS011;7584;60.468;25.126;2023-04-29T01:51:51;1.10;;;0.90;;
14975;SDS011;7584;60.468;25.126;2023-04-29T01:54:16;1.00;;;0.90;;
14975;SDS011;7584;60.468;25.126;2023-04-29T01:56:42;1.80;;;0.83;;
14975;SDS011;7584;60.468;25.126;2023-04-29T01:59:07;1.57;;;0.80;;
14975;SDS011;7584;60.468;25.126;2023-04-29T02:01:33;0.97;;;0.80;;
14975;SDS011;7584;60.468;25.126;2023-04-29T02:03:58;1.00;;;0.80;;
14975;SDS011;7584;60.468;25.126;2023-04-29T02:06:23;1.00;;;0.80;;
14975;SDS011;7584;60.468;25.126;2023-04-29T02:08:49;0.97;;;0.80;;
14975;SDS011;7584;60.468;25.126;2023-04-29T02:11:14;1.20;;;0.90;;
14975;SDS011;7584;60.468;25.126;2023-04-29T02:13:40;1.43;;;1.00;;
14975;SDS011;7584;60.468;25.126;2023-04-29T02:16:06;1.63;;;1.20;;
14975;SDS011;7584;60.468;25.126;2023-04-29T02:18:31;0.80;;;0.80;;
14975;SDS011;7584;60.468;25.126;2023-04-29T02:20:59;1.10;;;0.80;;
14975;SDS011;7584;60.468;25.126;2023-04-29T02:23:28;0.80;;;0.60;;
14975;SDS011;7584;60.468;25.126;2023-04-29T02:25:53;0.93;;;0.60;;
14975;SDS011;7584;60.468;25.126;2023-04-29T02:28:18;1.70;;;0.70;;
14975;SDS011;7584;60.468;25.126;2023-04-29T02:30:44;0.80;;;0.80;;
14975;SDS011;7584;60.468;25.126;2023-04-29T02:33:09;1.47;;;0.60;;
14975;SDS011;7584;60.468;25.126;2023-04-29T02:35:34;0.80;;;0.80;;
14975;SDS011;7584;60.468;25.126;2023-04-29T02:38:00;0.63;;;0.57;;
14975;SDS011;7584;60.468;25.126;2023-04-29T02:40:25;0.80;;;0.80;;
14975;SDS011;7584;60.468;25.126;2023-04-29T02:42:51;0.70;;;0.63;;
14975;SDS011;7584;60.468;25.126;2023-04-29T02:45:16;0.90;;;0.70;;
14975;SDS011;7584;60.468;25.126;2023-04-29T02:47:41;1.00;;;0.90;;
14975;SDS011;7584;60.468;25.126;2023-04-29T02:50:07;0.80;;;0.80;;
14975;SDS011;7584;60.468;25.126;2023-04-29T02:52:33;1.30;;;1.13;;
14975;SDS011;7584;60.468;25.126;2023-04-29T02:54:58;1.27;;;1.13;;
14975;SDS011;7584;60.468;25.126;2023-04-29T02:57:23;1.70;;;1.40;;
14975;SDS011;7584;60.468;25.126;2023-04-29T02:59:49;2.47;;;2.10;;
14975;SDS011;7584;60.468;25.126;2023-04-29T03:02:15;3.80;;;2.30;;
14975;SDS011;7584;60.468;25.126;2023-04-29T03:04:41;7.03;;;3.53;;
14975;SDS011;7584;60.468;25.126;2023-04-29T03:07:06;5.47;;;2.80;;
14975;SDS011;7584;60.468;25.126;2023-04-29T03:09:32;3.40;;;2.17;;
14975;SDS011;7584;60.468;25.126;2023-04-29T03:11:57;3.27;;;2.40;;
14975;SDS011;7584;60.468;25.126;2023-04-29T03:14:22;3.10;;;2.50;;
14975;SDS011;7584;60.468;25.126;2023-04-29T03:16:48;2.83;;;2.30;;
14975;SDS011;7584;60.468;25.126;2023-04-29T03:19:13;4.17;;;2.57;;
14975;SDS011;7584;60.468;25.126;2023-04-29T03:21:38;3.43;;;2.40;;
14975;SDS011;7584;60.468;25.126;2023-04-29T03:24:03;4.73;;;2.57;;
14975;SDS011;7584;60.468;25.126;2023-04-29T03:26:29;3.57;;;2.80;;
14975;SDS011;7584;60.468;25.126;2023-04-29T03:28:54;4.53;;;2.70;;
14975;SDS011;7584;60.468;25.126;2023-04-29T03:31:20;2.50;;;2.30;;
14975;SDS011;7584;60.468;25.126;2023-04-29T03:33:47;3.73;;;2.40;;
14975;SDS011;7584;60.468;25.126;2023-04-29T03:36:12;3.87;;;2.80;;
14975;SDS011;7584;60.468;25.126;2023-04-29T03:38:37;5.30;;;2.77;;
14975;SDS011;7584;60.468;25.126;2023-04-29T03:41:03;2.70;;;2.30;;
14975;SDS011;7584;60.468;25.126;2023-04-29T03:43:28;3.30;;;2.43;;
14975;SDS011;7584;60.468;25.126;2023-04-29T03:45:53;4.60;;;2.67;;
14975;SDS011;7584;60.468;25.126;2023-04-29T03:48:19;4.20;;;2.53;;
14975;SDS011;7584;60.468;25.126;2023-04-29T03:50:45;4.33;;;2.30;;
14975;SDS011;7584;60.468;25.126;2023-04-29T03:53:11;3.60;;;2.27;;
14975;SDS011;7584;60.468;25.126;2023-04-29T03:55:36;2.33;;;1.73;;
14975;SDS011;7584;60.468;25.126;2023-04-29T03:58:02;3.67;;;2.13;;
14975;SDS011;7584;60.468;25.126;2023-04-29T04:00:27;2.03;;;1.83;;
14975;SDS011;7584;60.468;25.126;2023-04-29T04:02:55;2.23;;;1.87;;
14975;SDS011;7584;60.468;25.126;2023-04-29T04:05:20;2.83;;;1.80;;
14975;SDS011;7584;60.468;25.126;2023-04-29T04:07:49;2.63;;;1.90;;
14975;SDS011;7584;60.468;25.126;2023-04-29T04:10:14;3.60;;;1.70;;
14975;SDS011;7584;60.468;25.126;2023-04-29T04:12:40;2.33;;;1.80;;
14975;SDS011;7584;60.468;25.126;2023-04-29T04:15:05;2.23;;;1.63;;
14975;SDS011;7584;60.468;25.126;2023-04-29T04:17:30;3.13;;;1.83;;
14975;SDS011;7584;60.468;25.126;2023-04-29T04:19:56;3.00;;;1.80;;
14975;SDS011;7584;60.468;25.126;2023-04-29T04:22:21;2.23;;;1.97;;
14975;SDS011;7584;60.468;25.126;2023-04-29T04:24:46;1.90;;;1.80;;
14975;SDS011;7584;60.468;25.126;2023-04-29T04:27:11;2.10;;;1.70;;
14975;SDS011;7584;60.468;25.126;2023-04-29T04:29:37;1.60;;;1.43;;
14975;SDS011;7584;60.468;25.126;2023-04-29T04:32:03;2.03;;;1.50;;
14975;SDS011;7584;60.468;25.126;2023-04-29T04:34:28;1.70;;;1.60;;
14975;SDS011;7584;60.468;25.126;2023-04-29T04:36:53;3.30;;;1.70;;
14975;SDS011;7584;60.468;25.126;2023-04-29T04:39:18;2.13;;;1.60;;
14975;SDS011;7584;60.468;25.126;2023-04-29T04:41:44;1.60;;;1.50;;
14975;SDS011;7584;60.468;25.126;2023-04-29T04:44:09;2.23;;;1.67;;
14975;SDS011;7584;60.468;25.126;2023-04-29T04:46:34;2.70;;;1.83;;
14975;SDS011;7584;60.468;25.126;2023-04-29T04:49:00;2.20;;;1.40;;
14975;SDS011;7584;60.468;25.126;2023-04-29T04:51:26;4.33;;;1.73;;
14975;SDS011;7584;60.468;25.126;2023-04-29T04:53:52;2.73;;;1.63;;
14975;SDS011;7584;60.468;25.126;2023-04-29T04:56:18;2.83;;;1.33;;
14975;SDS011;7584;60.468;25.126;2023-04-29T04:58:43;3.17;;;1.80;;
14975;SDS011;7584;60.468;25.126;2023-04-29T05:01:09;1.73;;;1.60;;
14975;SDS011;7584;60.468;25.126;2023-04-29T05:03:34;2.17;;;1.50;;
14975;SDS011;7584;60.468;25.126;2023-04-29T05:05:59;1.93;;;1.50;;
14975;SDS011;7584;60.468;25.126;2023-04-29T05:08:25;2.93;;;1.53;;
14975;SDS011;7584;60.468;25.126;2023-04-29T05:10:51;2.50;;;1.80;;
14975;SDS011;7584;60.468;25.126;2023-04-29T05:13:16;1.73;;;1.53;;
14975;SDS011;7584;60.468;25.126;2023-04-29T05:15:42;2.40;;;1.60;;
14975;SDS011;7584;60.468;25.126;2023-04-29T05:18:08;2.70;;;1.63;;
14975;SDS011;7584;60.468;25.126;2023-04-29T05:20:33;2.70;;;1.60;;
14975;SDS011;7584;60.468;25.126;2023-04-29T05:22:59;2.47;;;1.63;;
14975;SDS011;7584;60.468;25.126;2023-04-29T05:25:24;1.83;;;1.50;;
14975;SDS011;7584;60.468;25.126;2023-04-29T05:27:49;2.30;;;1.60;;
14975;SDS011;7584;60.468;25.126;2023-04-29T05:30:15;2.70;;;1.30;;
14975;SDS011;7584;60.468;25.126;2023-04-29T05:32:41;1.40;;;1.20;;
14975;SDS011;7584;60.468;25.126;2023-04-29T05:35:06;1.57;;;1.33;;
14975;SDS011;7584;60.468;25.126;2023-04-29T05:37:32;5.47;;;1.40;;
14975;SDS011;7584;60.468;25.126;2023-04-29T05:39:57;1.77;;;1.20;;
14975;SDS011;7584;60.468;25.126;2023-04-29T05:42:22;2.67;;;1.23;;
14975;SDS011;7584;60.468;25.126;2023-04-29T05:44:48;2.70;;;1.40;;
14975;SDS011;7584;60.468;25.126;2023-04-29T05:47:13;1.37;;;1.27;;
14975;SDS011;7584;60.468;25.126;2023-04-29T05:49:39;2.00;;;1.20;;
14975;SDS011;7584;60.468;25.126;2023-04-29T05:52:04;2.50;;;1.40;;
14975;SDS011;7584;60.468;25.126;2023-04-29T05:54:31;2.10;;;1.40;;
14975;SDS011;7584;60.468;25.126;2023-04-29T05:56:56;2.00;;;1.40;;
14975;SDS011;7584;60.468;25.126;2023-04-29T05:59:21;2.40;;;1.30;;
14975;SDS011;7584;60.468;25.126;2023-04-29T06:01:47;1.70;;;1.60;;
14975;SDS011;7584;60.468;25.126;2023-04-29T06:04:12;1.80;;;1.27;;
14975;SDS011;7584;60.468;25.126;2023-04-29T06:06:37;1.30;;;1.20;;
14975;SDS011;7584;60.468;25.126;2023-04-29T06:09:03;2.10;;;1.50;;
14975;SDS011;7584;60.468;25.126;2023-04-29T06:11:28;1.60;;;1.47;;
14975;SDS011;7584;60.468;25.126;2023-04-29T06:13:54;1.50;;;1.40;;
14975;SDS011;7584;60.468;25.126;2023-04-29T06:16:19;4.00;;;1.80;;
14975;SDS011;7584;60.468;25.126;2023-04-29T06:18:45;1.70;;;1.40;;
14975;SDS011;7584;60.468;25.126;2023-04-29T06:21:10;2.07;;;1.43;;
14975;SDS011;7584;60.468;25.126;2023-04-29T06:23:36;2.10;;;1.70;;
14975;SDS011;7584;60.468;25.126;2023-04-29T06:26:01;3.50;;;1.60;;
14975;SDS011;7584;60.468;25.126;2023-04-29T06:28:26;2.30;;;1.63;;
14975;SDS011;7584;60.468;25.126;2023-04-29T06:30:52;1.93;;;1.23;;
14975;SDS011;7584;60.468;25.126;2023-04-29T06:33:18;2.80;;;1.50;;
14975;SDS011;7584;60.468;25.126;2023-04-29T06:35:43;1.60;;;1.40;;
14975;SDS011;7584;60.468;25.126;2023-04-29T06:38:08;1.60;;;1.30;;
14975;SDS011;7584;60.468;25.126;2023-04-29T06:40:34;1.77;;;1.40;;
14975;SDS011;7584;60.468;25.126;2023-04-29T06:42:59;2.37;;;1.60;;
14975;SDS011;7584;60.468;25.126;2023-04-29T06:45:26;2.60;;;1.47;;
14975;SDS011;7584;60.468;25.126;2023-04-29T06:47:52;1.63;;;1.50;;
14975;SDS011;7584;60.468;25.126;2023-04-29T06:50:17;1.60;;;1.30;;
14975;SDS011;7584;60.468;25.126;2023-04-29T06:52:42;3.70;;;1.73;;
14975;SDS011;7584;60.468;25.126;2023-04-29T06:55:08;1.93;;;1.43;;
14975;SDS011;7584;60.468;25.126;2023-04-29T06:57:33;2.60;;;1.67;;
14975;SDS011;7584;60.468;25.126;2023-04-29T06:59:58;3.77;;;2.20;;
14975;SDS011;7584;60.468;25.126;2023-04-29T07:02:24;3.97;;;1.63;;
14975;SDS011;7584;60.468;25.126;2023-04-29T07:04:49;5.40;;;1.60;;
14975;SDS011;7584;60.468;25.126;2023-04-29T07:07:15;2.73;;;2.47;;
14975;SDS011;7584;60.468;25.126;2023-04-29T07:09:40;2.10;;;1.90;;
14975;SDS011;7584;60.468;25.126;2023-04-29T07:12:05;3.23;;;2.27;;
14975;SDS011;7584;60.468;25.126;2023-04-29T07:14:31;2.40;;;1.77;;
14975;SDS011;7584;60.468;25.126;2023-04-29T07:16:56;2.30;;;2.10;;
14975;SDS011;7584;60.468;25.126;2023-04-29T07:19:21;2.50;;;1.90;;
14975;SDS011;7584;60.468;25.126;2023-04-29T07:21:46;3.50;;;1.47;;
14975;SDS011;7584;60.468;25.126;2023-04-29T07:24:12;2.03;;;1.70;;
14975;SDS011;7584;60.468;25.126;2023-04-29T07:26:37;2.90;;;1.70;;
14975;SDS011;7584;60.468;25.126;2023-04-29T07:29:02;2.27;;;2.00;;
14975;SDS011;7584;60.468;25.126;2023-04-29T07:31:27;1.73;;;1.30;;
14975;SDS011;7584;60.468;25.126;2023-04-29T07:33:53;2.30;;;1.10;;
14975;SDS011;7584;60.468;25.126;2023-04-29T07:36:19;1.00;;;0.90;;
14975;SDS011;7584;60.468;25.126;2023-04-29T07:38:44;1.90;;;1.00;;
14975;SDS011;7584;60.468;25.126;2023-04-29T07:41:10;2.93;;;1.30;;
14975;SDS011;7584;60.468;25.126;2023-04-29T07:43:35;1.97;;;1.30;;
14975;SDS011;7584;60.468;25.126;2023-04-29T07:46:00;1.00;;;0.90;;
14975;SDS011;7584;60.468;25.126;2023-04-29T07:48:26;2.47;;;0.80;;
14975;SDS011;7584;60.468;25.126;2023-04-29T07:50:51;1.23;;;1.00;;
14975;SDS011;7584;60.468;25.126;2023-04-29T07:53:16;1.23;;;1.00;;
14975;SDS011;7584;60.468;25.126;2023-04-29T07:55:43;1.70;;;0.90;;
14975;SDS011;7584;60.468;25.126;2023-04-29T07:58:08;1.20;;;0.90;;
14975;SDS011;7584;60.468;25.126;2023-04-29T08:00:33;2.10;;;0.80;;
14975;SDS011;7584;60.468;25.126;2023-04-29T08:02:59;3.07;;;0.60;;
14975;SDS011;7584;60.468;25.126;2023-04-29T08:05:24;1.70;;;0.80;;
14975;SDS011;7584;60.468;25.126;2023-04-29T08:07:49;0.90;;;0.70;;
14975;SDS011;7584;60.468;25.126;2023-04-29T08:10:15;1.60;;;0.70;;
14975;SDS011;7584;60.468;25.126;2023-04-29T08:12:41;0.70;;;0.60;;
14975;SDS011;7584;60.468;25.126;2023-04-29T08:15:06;0.95;;;0.70;;
14975;SDS011;7584;60.468;25.126;2023-04-29T08:17:31;1.00;;;0.73;;
14975;SDS011;7584;60.468;25.126;2023-04-29T08:19:57;1.10;;;0.57;;
14975;SDS011;7584;60.468;25.126;2023-04-29T08:22:22;1.02;;;0.65;;
14975;SDS011;7584;60.468;25.126;2023-04-29T08:24:47;0.63;;;0.60;;
14975;SDS011;7584;60.468;25.126;2023-04-29T08:27:13;0.70;;;0.65;;
14975;SDS011;7584;60.468;25.126;2023-04-29T08:29:39;0.88;;;0.75;;
14975;SDS011;7584;60.468;25.126;2023-04-29T08:32:05;1.85;;;0.70;;
14975;SDS011;7584;60.468;25.126;2023-04-29T08:34:30;1.02;;;0.60;;
14975;SDS011;7584;60.468;25.126;2023-04-29T08:36:57;2.25;;;0.75;;
14975;SDS011;7584;60.468;25.126;2023-04-29T08:39:22;1.88;;;0.80;;
14975;SDS011;7584;60.468;25.126;2023-04-29T08:41:48;1.88;;;1.02;;
14975;SDS011;7584;60.468;25.126;2023-04-29T08:44:15;3.25;;;0.90;;
14975;SDS011;7584;60.468;25.126;2023-04-29T08:46:41;2.22;;;0.93;;
14975;SDS011;7584;60.468;25.126;2023-04-29T08:49:07;0.93;;;0.70;;
14975;SDS011;7584;60.468;25.126;2023-04-29T08:51:33;0.80;;;0.47;;
14975;SDS011;7584;60.468;25.126;2023-04-29T08:53:59;1.50;;;0.80;;
14975;SDS011;7584;60.468;25.126;2023-04-29T08:56:24;0.93;;;0.85;;
14975;SDS011;7584;60.468;25.126;2023-04-29T08:58:51;0.80;;;0.68;;
14975;SDS011;7584;60.468;25.126;2023-04-29T09:01:19;0.60;;;0.50;;
14975;SDS011;7584;60.468;25.126;2023-04-29T09:06:22;0.75;;;0.40;;
14975;SDS011;7584;60.468;25.126;2023-04-29T09:08:47;1.58;;;0.57;;
14975;SDS011;7584;60.468;25.126;2023-04-29T09:11:13;0.73;;;0.45;;
14975;SDS011;7584;60.468;25.126;2023-04-29T09:13:38;3.95;;;0.77;;
14975;SDS011;7584;60.468;25.126;2023-04-29T09:16:04;0.77;;;0.60;;
14975;SDS011;7584;60.468;25.126;2023-04-29T09:21:14;1.50;;;0.50;;
14975;SDS011;7584;60.468;25.126;2023-04-29T09:23:40;1.33;;;0.68;;
14975;SDS011;7584;60.468;25.126;2023-04-29T09:26:05;1.00;;;0.40;;
14975;SDS011;7584;60.468;25.126;2023-04-29T09:28:31;1.95;;;0.52;;
14975;SDS011;7584;60.468;25.126;2023-04-29T09:30:56;1.50;;;0.43;;
14975;SDS011;7584;60.468;25.126;2023-04-29T09:33:21;0.95;;;0.60;;
14975;SDS011;7584;60.468;25.126;2023-04-29T09:35:47;1.77;;;0.40;;
14975;SDS011;7584;60.468;25.126;2023-04-29T09:38:13;1.98;;;0.60;;
14975;SDS011;7584;60.468;25.126;2023-04-29T09:40:39;1.50;;;0.40;;
14975;SDS011;7584;60.468;25.126;2023-04-29T09:43:10;0.60;;;0.50;;
14975;SDS011;7584;60.468;25.126;2023-04-29T09:45:38;0.45;;;0.40;;
14975;SDS011;7584;60.468;25.126;2023-04-29T09:48:04;2.05;;;0.60;;
14975;SDS011;7584;60.468;25.126;2023-04-29T09:50:30;1.58;;;0.40;;
14975;SDS011;7584;60.468;25.126;2023-04-29T09:52:56;0.60;;;0.50;;
14975;SDS011;7584;60.468;25.126;2023-04-29T09:55:22;0.65;;;0.40;;
14975;SDS011;7584;60.468;25.126;2023-04-29T09:57:47;2.63;;;0.70;;
14975;SDS011;7584;60.468;25.126;2023-04-29T10:00:12;0.30;;;0.30;;
14975;SDS011;7584;60.468;25.126;2023-04-29T10:02:42;1.55;;;0.40;;
14975;SDS011;7584;60.468;25.126;2023-04-29T10:05:10;1.75;;;0.70;;
14975;SDS011;7584;60.468;25.126;2023-04-29T10:07:38;1.65;;;0.50;;
14975;SDS011;7584;60.468;25.126;2023-04-29T10:10:03;1.20;;;0.40;;
14975;SDS011;7584;60.468;25.126;2023-04-29T10:12:29;0.75;;;0.60;;
14975;SDS011;7584;60.468;25.126;2023-04-29T10:17:44;0.77;;;0.60;;
14975;SDS011;7584;60.468;25.126;2023-04-29T10:20:14;0.90;;;0.47;;
14975;SDS011;7584;60.468;25.126;2023-04-29T10:22:50;1.60;;;0.60;;
14975;SDS011;7584;60.468;25.126;2023-04-29T10:25:16;1.42;;;0.57;;
14975;SDS011;7584;60.468;25.126;2023-04-29T10:27:42;1.27;;;0.60;;
14975;SDS011;7584;60.468;25.126;2023-04-29T10:30:11;1.58;;;0.60;;
14975;SDS011;7584;60.468;25.126;2023-04-29T10:32:41;0.60;;;0.40;;
14975;SDS011;7584;60.468;25.126;2023-04-29T10:35:11;1.98;;;0.50;;
14975;SDS011;7584;60.468;25.126;2023-04-29T10:37:37;2.15;;;0.43;;
14975;SDS011;7584;60.468;25.126;2023-04-29T10:45:15;2.53;;;0.57;;
14975;SDS011;7584;60.468;25.126;2023-04-29T10:47:48;0.32;;;0.30;;
14975;SDS011;7584;60.468;25.126;2023-04-29T10:53:09;0.93;;;0.40;;
14975;SDS011;7584;60.468;25.126;2023-04-29T10:55:35;1.58;;;0.28;;
14975;SDS011;7584;60.468;25.126;2023-04-29T10:58:01;2.25;;;0.75;;
14975;SDS011;7584;60.468;25.126;2023-04-29T11:02:55;2.42;;;0.40;;
14975;SDS011;7584;60.468;25.126;2023-04-29T11:05:39;1.40;;;0.73;;
14975;SDS011;7584;60.468;25.126;2023-04-29T11:10:59;0.63;;;0.40;;
14975;SDS011;7584;60.468;25.126;2023-04-29T11:13:29;2.65;;;0.60;;
14975;SDS011;7584;60.468;25.126;2023-04-29T11:18:29;2.10;;;0.57;;
14975;SDS011;7584;60.468;25.126;2023-04-29T11:23:30;2.70;;;0.73;;
14975;SDS011;7584;60.468;25.126;2023-04-29T11:25:56;3.37;;;0.60;;
14975;SDS011;7584;60.468;25.126;2023-04-29T11:28:21;2.20;;;0.80;;
14975;SDS011;7584;60.468;25.126;2023-04-29T11:30:48;4.53;;;0.90;;
14975;SDS011;7584;60.468;25.126;2023-04-29T11:33:14;1.60;;;0.80;;
14975;SDS011;7584;60.468;25.126;2023-04-29T11:35:39;1.40;;;0.67;;
14975;SDS011;7584;60.468;25.126;2023-04-29T11:38:05;1.83;;;0.60;;
14975;SDS011;7584;60.468;25.126;2023-04-29T11:40:31;1.03;;;0.67;;
14975;SDS011;7584;60.468;25.126;2023-04-29T11:42:57;1.40;;;0.70;;
14975;SDS011;7584;60.468;25.126;2023-04-29T11:45:22;1.47;;;0.50;;
14975;SDS011;7584;60.468;25.126;2023-04-29T11:47:48;1.60;;;0.77;;
14975;SDS011;7584;60.468;25.126;2023-04-29T11:50:14;1.90;;;0.67;;
14975;SDS011;7584;60.468;25.126;2023-04-29T11:52:45;2.30;;;0.40;;
14975;SDS011;7584;60.468;25.126;2023-04-29T11:55:10;0.40;;;0.40;;
14975;SDS011;7584;60.468;25.126;2023-04-29T11:57:36;1.03;;;0.40;;
14975;SDS011;7584;60.468;25.126;2023-04-29T12:00:02;1.03;;;0.30;;
14975;SDS011;7584;60.468;25.126;2023-04-29T12:02:31;3.13;;;0.30;;
14975;SDS011;7584;60.468;25.126;2023-04-29T12:04:57;1.37;;;0.50;;
14975;SDS011;7584;60.468;25.126;2023-04-29T12:07:24;0.87;;;0.30;;
14975;SDS011;7584;60.468;25.126;2023-04-29T12:09:50;2.67;;;0.80;;
14975;SDS011;7584;60.468;25.126;2023-04-29T12:12:15;1.10;;;0.63;;
14975;SDS011;7584;60.468;25.126;2023-04-29T12:14:41;1.73;;;0.50;;
14975;SDS011;7584;60.468;25.126;2023-04-29T12:17:07;2.03;;;0.80;;
14975;SDS011;7584;60.468;25.126;2023-04-29T12:19:33;2.93;;;1.00;;
14975;SDS011;7584;60.468;25.126;2023-04-29T12:22:02;1.83;;;0.60;;
14975;SDS011;7584;60.468;25.126;2023-04-29T12:24:27;2.60;;;0.57;;
14975;SDS011;7584;60.468;25.126;2023-04-29T12:26:53;2.83;;;0.50;;
14975;SDS011;7584;60.468;25.126;2023-04-29T12:29:22;2.17;;;0.50;;
14975;SDS011;7584;60.468;25.126;2023-04-29T12:31:48;0.87;;;0.60;;
14975;SDS011;7584;60.468;25.126;2023-04-29T12:34:13;2.10;;;0.70;;
14975;SDS011;7584;60.468;25.126;2023-04-29T12:36:40;2.93;;;0.50;;
14975;SDS011;7584;60.468;25.126;2023-04-29T12:39:06;1.63;;;0.70;;
14975;SDS011;7584;60.468;25.126;2023-04-29T12:41:43;1.33;;;0.73;;
14975;SDS011;7584;60.468;25.126;2023-04-29T12:44:08;1.27;;;0.67;;
14975;SDS011;7584;60.468;25.126;2023-04-29T12:46:37;1.77;;;0.60;;
14975;SDS011;7584;60.468;25.126;2023-04-29T12:49:03;1.60;;;0.50;;
14975;SDS011;7584;60.468;25.126;2023-04-29T12:51:32;4.97;;;0.77;;
14975;SDS011;7584;60.468;25.126;2023-04-29T12:54:01;1.97;;;0.60;;
14975;SDS011;7584;60.468;25.126;2023-04-29T12:56:27;1.37;;;0.63;;
14975;SDS011;7584;60.468;25.126;2023-04-29T12:58:53;1.53;;;0.70;;
14975;SDS011;7584;60.468;25.126;2023-04-29T13:01:18;0.93;;;0.50;;
14975;SDS011;7584;60.468;25.126;2023-04-29T13:03:43;1.47;;;0.50;;
14975;SDS011;7584;60.468;25.126;2023-04-29T13:06:08;0.53;;;0.47;;
14975;SDS011;7584;60.468;25.126;2023-04-29T13:08:34;1.70;;;0.70;;
14975;SDS011;7584;60.468;25.126;2023-04-29T13:14:02;1.27;;;0.70;;
14975;SDS011;7584;60.468;25.126;2023-04-29T13:16:29;0.80;;;0.60;;
14975;SDS011;7584;60.468;25.126;2023-04-29T13:18:54;3.77;;;0.60;;
14975;SDS011;7584;60.468;25.126;2023-04-29T13:21:21;2.60;;;0.47;;
14975;SDS011;7584;60.468;25.126;2023-04-29T13:23:46;2.23;;;0.60;;
14975;SDS011;7584;60.468;25.126;2023-04-29T13:26:12;0.50;;;0.40;;
14975;SDS011;7584;60.468;25.126;2023-04-29T13:28:38;0.87;;;0.57;;
14975;SDS011;7584;60.468;25.126;2023-04-29T13:31:03;3.87;;;0.50;;
14975;SDS011;7584;60.468;25.126;2023-04-29T13:33:28;2.50;;;1.10;;
14975;SDS011;7584;60.468;25.126;2023-04-29T13:35:53;0.87;;;0.60;;
14975;SDS011;7584;60.468;25.126;2023-04-29T13:38:19;1.97;;;0.77;;
14975;SDS011;7584;60.468;25.126;2023-04-29T13:40:45;1.90;;;0.70;;
14975;SDS011;7584;60.468;25.126;2023-04-29T13:43:10;1.23;;;0.90;;
14975;SDS011;7584;60.468;25.126;2023-04-29T13:45:36;0.93;;;0.63;;
14975;SDS011;7584;60.468;25.126;2023-04-29T13:48:01;1.47;;;0.60;;
14975;SDS011;7584;60.468;25.126;2023-04-29T13:50:27;2.10;;;0.40;;
14975;SDS011;7584;60.468;25.126;2023-04-29T13:52:52;0.70;;;0.50;;
14975;SDS011;7584;60.468;25.126;2023-04-29T13:55:17;1.20;;;0.60;;
14975;SDS011;7584;60.468;25.126;2023-04-29T13:57:43;1.43;;;0.63;;
14975;SDS011;7584;60.468;25.126;2023-04-29T14:00:08;1.60;;;0.50;;
14975;SDS011;7584;60.468;25.126;2023-04-29T14:02:34;0.67;;;0.40;;
14975;SDS011;7584;60.468;25.126;2023-04-29T14:04:59;2.20;;;0.50;;
14975;SDS011;7584;60.468;25.126;2023-04-29T14:07:25;2.10;;;0.37;;
14975;SDS011;7584;60.468;25.126;2023-04-29T14:09:50;0.47;;;0.30;;
14975;SDS011;7584;60.468;25.126;2023-04-29T14:12:16;0.97;;;0.53;;
14975;SDS011;7584;60.468;25.126;2023-04-29T14:14:41;3.10;;;0.83;;
14975;SDS011;7584;60.468;25.126;2023-04-29T14:17:06;5.13;;;0.70;;
14975;SDS011;7584;60.468;25.126;2023-04-29T14:19:32;1.73;;;0.50;;
14975;SDS011;7584;60.468;25.126;2023-04-29T14:21:57;0.90;;;0.40;;
14975;SDS011;7584;60.468;25.126;2023-04-29T14:24:22;4.60;;;0.70;;
14975;SDS011;7584;60.468;25.126;2023-04-29T14:26:48;0.90;;;0.40;;
14975;SDS011;7584;60.468;25.126;2023-04-29T14:29:13;1.20;;;0.60;;
14975;SDS011;7584;60.468;25.126;2023-04-29T14:31:38;0.70;;;0.50;;
14975;SDS011;7584;60.468;25.126;2023-04-29T14:34:03;2.80;;;0.50;;
14975;SDS011;7584;60.468;25.126;2023-04-29T14:36:29;0.77;;;0.40;;
14975;SDS011;7584;60.468;25.126;2023-04-29T14:38:56;1.33;;;0.70;;
14975;SDS011;7584;60.468;25.126;2023-04-29T14:41:22;2.97;;;0.63;;
14975;SDS011;7584;60.468;25.126;2023-04-29T14:43:47;4.93;;;0.90;;
14975;SDS011;7584;60.468;25.126;2023-04-29T14:46:12;1.50;;;0.90;;
14975;SDS011;7584;60.468;25.126;2023-04-29T14:48:37;2.47;;;0.60;;
14975;SDS011;7584;60.468;25.126;2023-04-29T14:51:03;1.27;;;0.50;;
14975;SDS011;7584;60.468;25.126;2023-04-29T14:53:28;0.60;;;0.40;;
14975;SDS011;7584;60.468;25.126;2023-04-29T14:55:54;2.30;;;0.43;;
14975;SDS011;7584;60.468;25.126;2023-04-29T14:58:19;0.50;;;0.30;;
14975;SDS011;7584;60.468;25.126;2023-04-29T15:00:45;2.97;;;0.53;;
14975;SDS011;7584;60.468;25.126;2023-04-29T15:03:10;0.90;;;0.40;;
14975;SDS011;7584;60.468;25.126;2023-04-29T15:05:36;2.07;;;0.50;;
14975;SDS011;7584;60.468;25.126;2023-04-29T15:08:01;0.93;;;0.60;;
14975;SDS011;7584;60.468;25.126;2023-04-29T15:10:27;0.70;;;0.60;;
14975;SDS011;7584;60.468;25.126;2023-04-29T15:12:53;1.20;;;0.60;;
14975;SDS011;7584;60.468;25.126;2023-04-29T15:15:18;1.53;;;0.97;;
14975;SDS011;7584;60.468;25.126;2023-04-29T15:17:43;1.70;;;0.70;;
14975;SDS011;7584;60.468;25.126;2023-04-29T15:20:09;3.70;;;0.60;;
14975;SDS011;7584;60.468;25.126;2023-04-29T15:22:34;2.10;;;1.07;;